sensor_id;sensor_type;location;lat;lon;timestamp;P1;durP1;ratioP1;P2;durP2;ratioP2
12966;SDS011;6548;49.996;8.238;2024-02-21T00:00:54;13.70;;;4.10;;
12966;SDS011;6548;49.996;8.238;2024-02-21T00:03:20;13.73;;;4.85;;
12966;SDS011;6548;49.996;8.238;2024-02-21T00:05:46;15.48;;;3.88;;
12966;SDS011;6548;49.996;8.238;2024-02-21T00:08:11;13.02;;;4.07;;
12966;SDS011;6548;49.996;8.238;2024-02-21T00:10:37;11.00;;;4.22;;
12966;SDS011;6548;49.996;8.238;2024-02-21T00:13:03;13.00;;;4.32;;
12966;SDS011;6548;49.996;8.238;2024-02-21T00:15:28;8.23;;;3.72;;
12966;SDS011;6548;49.996;8.238;2024-02-21T00:17:54;9.18;;;3.60;;
12966;SDS011;6548;49.996;8.238;2024-02-21T00:20:19;12.18;;;4.10;;
12966;SDS011;6548;49.996;8.238;2024-02-21T00:22:45;11.52;;;4.35;;
12966;SDS011;6548;49.996;8.238;2024-02-21T00:25:11;11.05;;;4.78;;
12966;SDS011;6548;49.996;8.238;2024-02-21T00:27:37;12.40;;;3.75;;
12966;SDS011;6548;49.996;8.238;2024-02-21T00:30:03;10.68;;;4.35;;
12966;SDS011;6548;49.996;8.238;2024-02-21T00:32:29;14.68;;;3.90;;
12966;SDS011;6548;49.996;8.238;2024-02-21T00:34:54;10.43;;;4.10;;
12966;SDS011;6548;49.996;8.238;2024-02-21T00:37:20;8.13;;;3.97;;
12966;SDS011;6548;49.996;8.238;2024-02-21T00:39:45;13.02;;;4.50;;
12966;SDS011;6548;49.996;8.238;2024-02-21T00:42:11;16.08;;;5.55;;
12966;SDS011;6548;49.996;8.238;2024-02-21T00:44:36;14.50;;;4.70;;
12966;SDS011;6548;49.996;8.238;2024-02-21T00:47:02;12.07;;;4.22;;
12966;SDS011;6548;49.996;8.238;2024-02-21T00:49:27;7.95;;;4.30;;
12966;SDS011;6548;49.996;8.238;2024-02-21T00:51:53;7.90;;;4.50;;
12966;SDS011;6548;49.996;8.238;2024-02-21T00:54:18;12.57;;;4.18;;
12966;SDS011;6548;49.996;8.238;2024-02-21T00:56:44;9.20;;;4.22;;
12966;SDS011;6548;49.996;8.238;2024-02-21T00:59:09;13.15;;;5.03;;
12966;SDS011;6548;49.996;8.238;2024-02-21T01:01:35;10.88;;;3.92;;
12966;SDS011;6548;49.996;8.238;2024-02-21T01:04:00;10.38;;;3.97;;
12966;SDS011;6548;49.996;8.238;2024-02-21T01:06:26;9.68;;;3.80;;
12966;SDS011;6548;49.996;8.238;2024-02-21T01:08:52;13.18;;;5.15;;
12966;SDS011;6548;49.996;8.238;2024-02-21T01:11:17;10.93;;;4.50;;
12966;SDS011;6548;49.996;8.238;2024-02-21T01:13:43;9.85;;;4.70;;
12966;SDS011;6548;49.996;8.238;2024-02-21T01:16:09;10.10;;;4.40;;
12966;SDS011;6548;49.996;8.238;2024-02-21T01:18:36;8.05;;;3.90;;
12966;SDS011;6548;49.996;8.238;2024-02-21T01:21:02;13.73;;;3.90;;
12966;SDS011;6548;49.996;8.238;2024-02-21T01:23:31;10.57;;;4.78;;
12966;SDS011;6548;49.996;8.238;2024-02-21T01:25:58;8.98;;;4.70;;
12966;SDS011;6548;49.996;8.238;2024-02-21T01:28:23;10.85;;;4.68;;
12966;SDS011;6548;49.996;8.238;2024-02-21T01:30:49;11.73;;;4.68;;
12966;SDS011;6548;49.996;8.238;2024-02-21T01:33:14;12.07;;;4.68;;
12966;SDS011;6548;49.996;8.238;2024-02-21T01:35:40;9.38;;;4.00;;
12966;SDS011;6548;49.996;8.238;2024-02-21T01:38:05;8.05;;;4.22;;
12966;SDS011;6548;49.996;8.238;2024-02-21T01:40:31;10.88;;;3.53;;
12966;SDS011;6548;49.996;8.238;2024-02-21T01:42:56;9.32;;;4.07;;
12966;SDS011;6548;49.996;8.238;2024-02-21T01:45:22;11.02;;;5.28;;
12966;SDS011;6548;49.996;8.238;2024-02-21T01:47:48;17.50;;;5.35;;
12966;SDS011;6548;49.996;8.238;2024-02-21T01:50:15;10.30;;;4.18;;
12966;SDS011;6548;49.996;8.238;2024-02-21T01:52:42;12.55;;;4.18;;
12966;SDS011;6548;49.996;8.238;2024-02-21T01:55:11;11.27;;;4.22;;
12966;SDS011;6548;49.996;8.238;2024-02-21T01:57:39;8.73;;;3.75;;
12966;SDS011;6548;49.996;8.238;2024-02-21T02:00:06;12.98;;;5.20;;
12966;SDS011;6548;49.996;8.238;2024-02-21T02:02:32;8.07;;;4.05;;
12966;SDS011;6548;49.996;8.238;2024-02-21T02:04:59;9.00;;;4.35;;
12966;SDS011;6548;49.996;8.238;2024-02-21T02:07:25;8.60;;;3.53;;
12966;SDS011;6548;49.996;8.238;2024-02-21T02:09:51;9.18;;;3.83;;
12966;SDS011;6548;49.996;8.238;2024-02-21T02:12:16;9.93;;;4.00;;
12966;SDS011;6548;49.996;8.238;2024-02-21T02:14:42;11.05;;;3.78;;
12966;SDS011;6548;49.996;8.238;2024-02-21T02:17:07;12.60;;;3.97;;
12966;SDS011;6548;49.996;8.238;2024-02-21T02:19:34;10.27;;;3.55;;
12966;SDS011;6548;49.996;8.238;2024-02-21T02:22:00;10.93;;;4.07;;
12966;SDS011;6548;49.996;8.238;2024-02-21T02:24:40;8.70;;;3.42;;
12966;SDS011;6548;49.996;8.238;2024-02-21T02:27:06;11.40;;;3.80;;
12966;SDS011;6548;49.996;8.238;2024-02-21T02:29:32;10.73;;;4.30;;
12966;SDS011;6548;49.996;8.238;2024-02-21T02:31:57;6.53;;;3.70;;
12966;SDS011;6548;49.996;8.238;2024-02-21T02:34:23;8.82;;;3.35;;
12966;SDS011;6548;49.996;8.238;2024-02-21T02:36:49;7.70;;;3.90;;
12966;SDS011;6548;49.996;8.238;2024-02-21T02:39:14;7.57;;;5.20;;
12966;SDS011;6548;49.996;8.238;2024-02-21T02:41:40;10.18;;;3.75;;
12966;SDS011;6548;49.996;8.238;2024-02-21T02:44:05;10.57;;;4.00;;
12966;SDS011;6548;49.996;8.238;2024-02-21T02:46:31;9.77;;;3.72;;
12966;SDS011;6548;49.996;8.238;2024-02-21T02:48:56;8.52;;;3.92;;
12966;SDS011;6548;49.996;8.238;2024-02-21T02:51:22;9.50;;;3.85;;
12966;SDS011;6548;49.996;8.238;2024-02-21T02:53:47;14.93;;;3.45;;
12966;SDS011;6548;49.996;8.238;2024-02-21T02:56:16;9.48;;;3.42;;
12966;SDS011;6548;49.996;8.238;2024-02-21T02:58:42;11.98;;;3.38;;
12966;SDS011;6548;49.996;8.238;2024-02-21T03:01:09;7.85;;;3.20;;
12966;SDS011;6548;49.996;8.238;2024-02-21T03:03:34;6.38;;;3.08;;
12966;SDS011;6548;49.996;8.238;2024-02-21T03:06:00;9.82;;;3.70;;
12966;SDS011;6548;49.996;8.238;2024-02-21T03:08:25;10.27;;;3.60;;
12966;SDS011;6548;49.996;8.238;2024-02-21T03:10:51;7.93;;;3.08;;
12966;SDS011;6548;49.996;8.238;2024-02-21T03:13:17;10.02;;;2.90;;
12966;SDS011;6548;49.996;8.238;2024-02-21T03:15:42;10.02;;;3.30;;
12966;SDS011;6548;49.996;8.238;2024-02-21T03:18:08;11.05;;;4.13;;
12966;SDS011;6548;49.996;8.238;2024-02-21T03:20:33;10.35;;;3.38;;
12966;SDS011;6548;49.996;8.238;2024-02-21T03:22:59;8.88;;;3.15;;
12966;SDS011;6548;49.996;8.238;2024-02-21T03:25:24;10.30;;;3.67;;
12966;SDS011;6548;49.996;8.238;2024-02-21T03:27:50;11.35;;;3.92;;
12966;SDS011;6548;49.996;8.238;2024-02-21T03:30:16;10.02;;;4.25;;
12966;SDS011;6548;49.996;8.238;2024-02-21T03:32:42;9.35;;;4.28;;
12966;SDS011;6548;49.996;8.238;2024-02-21T03:35:07;13.95;;;4.63;;
12966;SDS011;6548;49.996;8.238;2024-02-21T03:37:33;10.93;;;4.22;;
12966;SDS011;6548;49.996;8.238;2024-02-21T03:39:58;10.80;;;4.05;;
12966;SDS011;6548;49.996;8.238;2024-02-21T03:42:24;7.28;;;4.10;;
12966;SDS011;6548;49.996;8.238;2024-02-21T03:44:50;8.65;;;3.95;;
12966;SDS011;6548;49.996;8.238;2024-02-21T06:17:11;11.93;;;4.72;;
12966;SDS011;6548;49.996;8.238;2024-02-21T06:19:39;12.75;;;6.38;;
12966;SDS011;6548;49.996;8.238;2024-02-21T06:22:06;15.02;;;6.25;;
12966;SDS011;6548;49.996;8.238;2024-02-21T06:24:34;15.10;;;5.28;;
12966;SDS011;6548;49.996;8.238;2024-02-21T06:27:01;14.50;;;5.78;;
12966;SDS011;6548;49.996;8.238;2024-02-21T06:29:28;12.95;;;5.85;;
12966;SDS011;6548;49.996;8.238;2024-02-21T06:31:53;12.93;;;6.25;;
12966;SDS011;6548;49.996;8.238;2024-02-21T06:34:19;18.77;;;6.72;;
12966;SDS011;6548;49.996;8.238;2024-02-21T06:36:44;13.15;;;5.78;;
12966;SDS011;6548;49.996;8.238;2024-02-21T06:39:10;8.15;;;5.50;;
12966;SDS011;6548;49.996;8.238;2024-02-21T06:41:36;15.68;;;7.50;;
12966;SDS011;6548;49.996;8.238;2024-02-21T06:44:02;15.27;;;6.13;;
12966;SDS011;6548;49.996;8.238;2024-02-21T06:46:28;15.60;;;7.20;;
12966;SDS011;6548;49.996;8.238;2024-02-21T06:48:54;18.65;;;8.48;;
12966;SDS011;6548;49.996;8.238;2024-02-21T06:51:23;19.90;;;7.97;;
12966;SDS011;6548;49.996;8.238;2024-02-21T06:53:49;18.25;;;8.43;;
12966;SDS011;6548;49.996;8.238;2024-02-21T06:56:15;16.50;;;7.93;;
12966;SDS011;6548;49.996;8.238;2024-02-21T06:58:41;15.40;;;8.00;;
12966;SDS011;6548;49.996;8.238;2024-02-21T07:01:06;19.55;;;7.72;;
12966;SDS011;6548;49.996;8.238;2024-02-21T07:03:32;20.35;;;8.38;;
12966;SDS011;6548;49.996;8.238;2024-02-21T07:05:58;19.17;;;8.07;;
12966;SDS011;6548;49.996;8.238;2024-02-21T07:08:23;25.17;;;9.38;;
12966;SDS011;6548;49.996;8.238;2024-02-21T07:10:49;19.50;;;8.85;;
12966;SDS011;6548;49.996;8.238;2024-02-21T07:13:14;14.60;;;8.18;;
12966;SDS011;6548;49.996;8.238;2024-02-21T07:15:40;16.80;;;8.40;;
12966;SDS011;6548;49.996;8.238;2024-02-21T07:18:06;17.10;;;8.70;;
12966;SDS011;6548;49.996;8.238;2024-02-21T07:20:32;16.85;;;8.77;;
12966;SDS011;6548;49.996;8.238;2024-02-21T07:23:02;18.45;;;8.73;;
12966;SDS011;6548;49.996;8.238;2024-02-21T07:25:28;16.60;;;8.68;;
12966;SDS011;6548;49.996;8.238;2024-02-21T07:27:54;13.70;;;8.55;;
12966;SDS011;6548;49.996;8.238;2024-02-21T07:30:20;13.05;;;7.95;;
12966;SDS011;6548;49.996;8.238;2024-02-21T07:32:45;18.40;;;8.23;;
12966;SDS011;6548;49.996;8.238;2024-02-21T07:35:13;19.02;;;9.20;;
12966;SDS011;6548;49.996;8.238;2024-02-21T07:37:39;16.05;;;8.43;;
12966;SDS011;6548;49.996;8.238;2024-02-21T07:40:05;13.82;;;7.82;;
12966;SDS011;6548;49.996;8.238;2024-02-21T07:42:31;18.70;;;9.52;;
12966;SDS011;6548;49.996;8.238;2024-02-21T07:44:56;16.90;;;9.07;;
12966;SDS011;6548;49.996;8.238;2024-02-21T07:47:22;18.23;;;8.68;;
12966;SDS011;6548;49.996;8.238;2024-02-21T07:49:48;18.05;;;8.18;;
12966;SDS011;6548;49.996;8.238;2024-02-21T07:52:14;15.40;;;7.20;;
12966;SDS011;6548;49.996;8.238;2024-02-21T07:54:40;14.38;;;7.90;;
12966;SDS011;6548;49.996;8.238;2024-02-21T07:57:06;19.80;;;9.45;;
12966;SDS011;6548;49.996;8.238;2024-02-21T07:59:32;17.40;;;9.13;;
12966;SDS011;6548;49.996;8.238;2024-02-21T08:01:58;20.83;;;8.43;;
12966;SDS011;6548;49.996;8.238;2024-02-21T08:04:23;19.15;;;9.20;;
12966;SDS011;6548;49.996;8.238;2024-02-21T08:06:53;17.67;;;8.88;;
12966;SDS011;6548;49.996;8.238;2024-02-21T08:09:19;18.58;;;8.57;;
12966;SDS011;6548;49.996;8.238;2024-02-21T08:11:44;20.45;;;8.65;;
12966;SDS011;6548;49.996;8.238;2024-02-21T08:14:10;19.25;;;8.77;;
12966;SDS011;6548;49.996;8.238;2024-02-21T08:16:35;12.10;;;6.68;;
12966;SDS011;6548;49.996;8.238;2024-02-21T08:19:01;14.55;;;7.45;;
12966;SDS011;6548;49.996;8.238;2024-02-21T08:21:28;14.85;;;7.32;;
12966;SDS011;6548;49.996;8.238;2024-02-21T08:23:53;15.75;;;6.75;;
12966;SDS011;6548;49.996;8.238;2024-02-21T08:26:19;19.33;;;7.45;;
12966;SDS011;6548;49.996;8.238;2024-02-21T08:28:45;17.08;;;7.10;;
12966;SDS011;6548;49.996;8.238;2024-02-21T08:31:10;15.68;;;6.55;;
12966;SDS011;6548;49.996;8.238;2024-02-21T08:33:36;11.63;;;5.60;;
12966;SDS011;6548;49.996;8.238;2024-02-21T08:36:01;12.70;;;5.38;;
12966;SDS011;6548;49.996;8.238;2024-02-21T08:38:28;11.48;;;5.57;;
12966;SDS011;6548;49.996;8.238;2024-02-21T08:40:53;10.25;;;4.28;;
12966;SDS011;6548;49.996;8.238;2024-02-21T08:43:19;15.65;;;5.45;;
12966;SDS011;6548;49.996;8.238;2024-02-21T08:45:44;10.30;;;4.05;;
12966;SDS011;6548;49.996;8.238;2024-02-21T08:48:10;10.85;;;4.18;;
12966;SDS011;6548;49.996;8.238;2024-02-21T08:50:35;12.77;;;3.97;;
12966;SDS011;6548;49.996;8.238;2024-02-21T08:53:01;5.82;;;3.17;;
12966;SDS011;6548;49.996;8.238;2024-02-21T08:55:27;7.55;;;3.03;;
12966;SDS011;6548;49.996;8.238;2024-02-21T08:57:52;10.57;;;3.67;;
12966;SDS011;6548;49.996;8.238;2024-02-21T09:00:18;7.00;;;3.35;;
12966;SDS011;6548;49.996;8.238;2024-02-21T09:02:46;9.82;;;3.88;;
12966;SDS011;6548;49.996;8.238;2024-02-21T09:05:11;7.85;;;3.10;;
12966;SDS011;6548;49.996;8.238;2024-02-21T09:07:37;7.78;;;2.72;;
12966;SDS011;6548;49.996;8.238;2024-02-21T09:10:02;7.60;;;3.80;;
12966;SDS011;6548;49.996;8.238;2024-02-21T09:12:29;4.82;;;2.67;;
12966;SDS011;6548;49.996;8.238;2024-02-21T09:14:54;9.65;;;3.30;;
12966;SDS011;6548;49.996;8.238;2024-02-21T09:17:20;6.30;;;2.92;;
12966;SDS011;6548;49.996;8.238;2024-02-21T09:19:46;7.63;;;3.05;;
12966;SDS011;6548;49.996;8.238;2024-02-21T09:22:12;8.48;;;4.20;;
12966;SDS011;6548;49.996;8.238;2024-02-21T09:24:38;9.23;;;3.05;;
12966;SDS011;6548;49.996;8.238;2024-02-21T09:27:04;7.20;;;3.30;;
12966;SDS011;6548;49.996;8.238;2024-02-21T09:29:30;10.30;;;3.58;;
12966;SDS011;6548;49.996;8.238;2024-02-21T09:31:57;9.98;;;3.40;;
12966;SDS011;6548;49.996;8.238;2024-02-21T09:34:24;12.18;;;4.40;;
12966;SDS011;6548;49.996;8.238;2024-02-21T09:36:49;8.80;;;4.05;;
12966;SDS011;6548;49.996;8.238;2024-02-21T09:39:15;10.20;;;4.32;;
12966;SDS011;6548;49.996;8.238;2024-02-21T09:41:45;11.98;;;3.88;;
12966;SDS011;6548;49.996;8.238;2024-02-21T09:44:18;11.77;;;4.60;;
12966;SDS011;6548;49.996;8.238;2024-02-21T09:47:19;8.98;;;4.00;;
12966;SDS011;6548;49.996;8.238;2024-02-21T09:49:39;13.85;;;4.05;;
12966;SDS011;6548;49.996;8.238;2024-02-21T09:52:07;7.65;;;3.42;;
12966;SDS011;6548;49.996;8.238;2024-02-21T09:54:34;7.18;;;3.25;;
12966;SDS011;6548;49.996;8.238;2024-02-21T09:57:00;9.68;;;3.90;;
12966;SDS011;6548;49.996;8.238;2024-02-21T09:59:32;7.82;;;2.83;;
12966;SDS011;6548;49.996;8.238;2024-02-21T10:01:58;5.80;;;3.17;;
12966;SDS011;6548;49.996;8.238;2024-02-21T10:04:26;10.60;;;3.55;;
12966;SDS011;6548;49.996;8.238;2024-02-21T10:06:53;8.05;;;3.17;;
12966;SDS011;6548;49.996;8.238;2024-02-21T10:09:22;5.32;;;2.95;;
12966;SDS011;6548;49.996;8.238;2024-02-21T10:11:49;7.47;;;2.67;;
12966;SDS011;6548;49.996;8.238;2024-02-21T10:14:16;9.50;;;3.53;;
12966;SDS011;6548;49.996;8.238;2024-02-21T10:16:43;6.70;;;3.03;;
12966;SDS011;6548;49.996;8.238;2024-02-21T10:19:16;8.75;;;3.08;;
12966;SDS011;6548;49.996;8.238;2024-02-21T10:21:58;8.23;;;2.53;;
12966;SDS011;6548;49.996;8.238;2024-02-21T10:24:28;8.23;;;2.92;;
12966;SDS011;6548;49.996;8.238;2024-02-21T10:27:07;10.23;;;3.65;;
12966;SDS011;6548;49.996;8.238;2024-02-21T10:29:37;6.07;;;3.15;;
12966;SDS011;6548;49.996;8.238;2024-02-21T10:34:36;6.30;;;2.97;;
12966;SDS011;6548;49.996;8.238;2024-02-21T10:37:03;8.48;;;3.40;;
12966;SDS011;6548;49.996;8.238;2024-02-21T10:39:34;9.32;;;3.00;;
12966;SDS011;6548;49.996;8.238;2024-02-21T10:42:03;6.32;;;2.72;;
12966;SDS011;6548;49.996;8.238;2024-02-21T10:44:30;7.00;;;3.03;;
12966;SDS011;6548;49.996;8.238;2024-02-21T10:46:58;8.10;;;2.58;;
12966;SDS011;6548;49.996;8.238;2024-02-21T10:49:25;7.55;;;2.97;;
12966;SDS011;6548;49.996;8.238;2024-02-21T10:52:00;8.27;;;3.05;;
12966;SDS011;6548;49.996;8.238;2024-02-21T10:54:44;11.40;;;4.63;;
12966;SDS011;6548;49.996;8.238;2024-02-21T10:57:16;8.27;;;3.38;;
12966;SDS011;6548;49.996;8.238;2024-02-21T10:59:44;8.43;;;2.90;;
12966;SDS011;6548;49.996;8.238;2024-02-21T11:02:10;4.40;;;2.53;;
12966;SDS011;6548;49.996;8.238;2024-02-21T11:04:35;8.32;;;3.25;;
12966;SDS011;6548;49.996;8.238;2024-02-21T11:07:05;8.68;;;2.67;;
12966;SDS011;6548;49.996;8.238;2024-02-21T11:09:31;8.80;;;3.53;;
12966;SDS011;6548;49.996;8.238;2024-02-21T11:11:58;8.15;;;3.03;;
12966;SDS011;6548;49.996;8.238;2024-02-21T11:14:28;8.80;;;2.72;;
12966;SDS011;6548;49.996;8.238;2024-02-21T11:16:57;11.80;;;3.45;;
12966;SDS011;6548;49.996;8.238;2024-02-21T11:19:26;8.85;;;2.35;;
12966;SDS011;6548;49.996;8.238;2024-02-21T11:21:53;6.13;;;2.85;;
12966;SDS011;6548;49.996;8.238;2024-02-21T11:24:29;7.68;;;2.70;;
12966;SDS011;6548;49.996;8.238;2024-02-21T11:29:39;11.60;;;3.05;;
12966;SDS011;6548;49.996;8.238;2024-02-21T11:32:09;9.65;;;2.63;;
12966;SDS011;6548;49.996;8.238;2024-02-21T11:34:36;7.88;;;3.10;;
12966;SDS011;6548;49.996;8.238;2024-02-21T11:37:02;6.50;;;2.33;;
12966;SDS011;6548;49.996;8.238;2024-02-21T11:39:37;6.82;;;2.28;;
12966;SDS011;6548;49.996;8.238;2024-02-21T11:42:04;6.75;;;3.17;;
12966;SDS011;6548;49.996;8.238;2024-02-21T11:44:31;6.50;;;2.50;;
12966;SDS011;6548;49.996;8.238;2024-02-21T11:46:57;6.20;;;2.63;;
12966;SDS011;6548;49.996;8.238;2024-02-21T11:49:27;5.18;;;2.33;;
12966;SDS011;6548;49.996;8.238;2024-02-21T11:52:00;6.78;;;2.70;;
12966;SDS011;6548;49.996;8.238;2024-02-21T11:54:29;7.53;;;3.28;;
12966;SDS011;6548;49.996;8.238;2024-02-21T11:56:58;6.00;;;2.63;;
12966;SDS011;6548;49.996;8.238;2024-02-21T11:59:23;8.70;;;3.03;;
12966;SDS011;6548;49.996;8.238;2024-02-21T12:01:49;10.63;;;3.72;;
12966;SDS011;6548;49.996;8.238;2024-02-21T12:04:17;7.82;;;3.40;;
12966;SDS011;6548;49.996;8.238;2024-02-21T12:06:44;7.55;;;3.28;;
12966;SDS011;6548;49.996;8.238;2024-02-21T12:09:13;7.82;;;2.80;;
12966;SDS011;6548;49.996;8.238;2024-02-21T12:11:41;9.95;;;2.90;;
12966;SDS011;6548;49.996;8.238;2024-02-21T12:14:07;6.18;;;2.83;;
12966;SDS011;6548;49.996;8.238;2024-02-21T12:16:34;7.68;;;3.17;;
12966;SDS011;6548;49.996;8.238;2024-02-21T12:19:01;11.25;;;3.33;;
12966;SDS011;6548;49.996;8.238;2024-02-21T12:21:31;11.85;;;3.00;;
12966;SDS011;6548;49.996;8.238;2024-02-21T12:24:11;7.18;;;2.88;;
12966;SDS011;6548;49.996;8.238;2024-02-21T12:26:46;11.13;;;3.22;;
12966;SDS011;6548;49.996;8.238;2024-02-21T12:29:11;8.85;;;3.58;;
12966;SDS011;6548;49.996;8.238;2024-02-21T12:31:37;9.02;;;2.60;;
12966;SDS011;6548;49.996;8.238;2024-02-21T12:34:03;7.20;;;3.90;;
12966;SDS011;6548;49.996;8.238;2024-02-21T12:36:29;7.30;;;3.35;;
12966;SDS011;6548;49.996;8.238;2024-02-21T12:39:01;7.43;;;3.13;;
12966;SDS011;6548;49.996;8.238;2024-02-21T12:41:28;7.68;;;2.88;;
12966;SDS011;6548;49.996;8.238;2024-02-21T12:43:54;10.07;;;4.13;;
12966;SDS011;6548;49.996;8.238;2024-02-21T12:46:21;7.72;;;3.63;;
12966;SDS011;6548;49.996;8.238;2024-02-21T12:48:47;11.95;;;3.85;;
12966;SDS011;6548;49.996;8.238;2024-02-21T12:51:12;9.15;;;4.00;;
12966;SDS011;6548;49.996;8.238;2024-02-21T12:53:39;9.23;;;4.18;;
12966;SDS011;6548;49.996;8.238;2024-02-21T12:56:05;7.93;;;3.17;;
12966;SDS011;6548;49.996;8.238;2024-02-21T12:58:32;7.80;;;3.13;;
12966;SDS011;6548;49.996;8.238;2024-02-21T13:00:58;6.03;;;3.40;;
12966;SDS011;6548;49.996;8.238;2024-02-21T13:03:23;8.77;;;3.55;;
12966;SDS011;6548;49.996;8.238;2024-02-21T13:05:49;8.30;;;3.38;;
12966;SDS011;6548;49.996;8.238;2024-02-21T13:08:14;9.68;;;3.50;;
12966;SDS011;6548;49.996;8.238;2024-02-21T13:10:40;10.63;;;4.63;;
12966;SDS011;6548;49.996;8.238;2024-02-21T13:13:05;8.07;;;3.72;;
12966;SDS011;6548;49.996;8.238;2024-02-21T13:15:31;6.90;;;3.35;;
12966;SDS011;6548;49.996;8.238;2024-02-21T13:17:57;8.40;;;3.10;;
12966;SDS011;6548;49.996;8.238;2024-02-21T13:20:23;8.73;;;2.60;;
12966;SDS011;6548;49.996;8.238;2024-02-21T13:22:49;5.60;;;3.20;;
12966;SDS011;6548;49.996;8.238;2024-02-21T13:25:14;7.30;;;2.75;;
12966;SDS011;6548;49.996;8.238;2024-02-21T13:27:43;4.75;;;2.85;;
12966;SDS011;6548;49.996;8.238;2024-02-21T13:30:09;7.88;;;3.38;;
12966;SDS011;6548;49.996;8.238;2024-02-21T13:32:35;8.30;;;3.03;;
12966;SDS011;6548;49.996;8.238;2024-02-21T13:35:01;6.10;;;2.53;;
12966;SDS011;6548;49.996;8.238;2024-02-21T13:37:27;7.35;;;2.60;;
12966;SDS011;6548;49.996;8.238;2024-02-21T13:39:53;8.73;;;3.83;;
12966;SDS011;6548;49.996;8.238;2024-02-21T13:42:19;9.32;;;3.00;;
12966;SDS011;6548;49.996;8.238;2024-02-21T13:44:45;6.63;;;2.60;;
12966;SDS011;6548;49.996;8.238;2024-02-21T13:47:14;8.85;;;2.85;;
12966;SDS011;6548;49.996;8.238;2024-02-21T13:49:40;9.52;;;2.10;;
12966;SDS011;6548;49.996;8.238;2024-02-21T13:52:06;5.63;;;2.42;;
12966;SDS011;6548;49.996;8.238;2024-02-21T13:54:31;7.25;;;2.20;;
12966;SDS011;6548;49.996;8.238;2024-02-21T13:56:57;6.13;;;2.50;;
12966;SDS011;6548;49.996;8.238;2024-02-21T13:59:22;10.50;;;2.47;;
12966;SDS011;6548;49.996;8.238;2024-02-21T14:01:48;6.03;;;3.30;;
12966;SDS011;6548;49.996;8.238;2024-02-21T14:04:13;8.23;;;2.85;;
12966;SDS011;6548;49.996;8.238;2024-02-21T14:06:39;3.88;;;1.85;;
12966;SDS011;6548;49.996;8.238;2024-02-21T14:09:08;9.70;;;2.40;;
12966;SDS011;6548;49.996;8.238;2024-02-21T14:11:34;7.63;;;2.00;;
12966;SDS011;6548;49.996;8.238;2024-02-21T14:14:00;5.65;;;2.63;;
12966;SDS011;6548;49.996;8.238;2024-02-21T14:16:26;6.03;;;2.10;;
12966;SDS011;6548;49.996;8.238;2024-02-21T14:18:52;4.50;;;2.15;;
12966;SDS011;6548;49.996;8.238;2024-02-21T14:21:19;6.68;;;2.13;;
12966;SDS011;6548;49.996;8.238;2024-02-21T14:23:44;6.45;;;2.63;;
12966;SDS011;6548;49.996;8.238;2024-02-21T14:26:10;8.35;;;2.03;;
12966;SDS011;6548;49.996;8.238;2024-02-21T14:28:37;6.90;;;2.17;;
12966;SDS011;6548;49.996;8.238;2024-02-21T14:31:02;5.53;;;1.77;;
12966;SDS011;6548;49.996;8.238;2024-02-21T14:33:30;10.07;;;2.42;;
12966;SDS011;6548;49.996;8.238;2024-02-21T14:35:56;7.80;;;2.08;;
12966;SDS011;6548;49.996;8.238;2024-02-21T14:38:21;4.68;;;1.80;;
12966;SDS011;6548;49.996;8.238;2024-02-21T14:40:47;6.80;;;2.65;;
12966;SDS011;6548;49.996;8.238;2024-02-21T14:43:13;5.13;;;2.03;;
12966;SDS011;6548;49.996;8.238;2024-02-21T14:45:38;5.63;;;1.88;;
12966;SDS011;6548;49.996;8.238;2024-02-21T14:48:05;6.28;;;2.10;;
12966;SDS011;6548;49.996;8.238;2024-02-21T14:50:30;6.90;;;2.38;;
12966;SDS011;6548;49.996;8.238;2024-02-21T14:52:56;4.45;;;1.52;;
12966;SDS011;6548;49.996;8.238;2024-02-21T14:55:21;5.00;;;1.85;;
12966;SDS011;6548;49.996;8.238;2024-02-21T14:57:48;5.95;;;1.88;;
12966;SDS011;6548;49.996;8.238;2024-02-21T15:00:13;5.13;;;2.10;;
12966;SDS011;6548;49.996;8.238;2024-02-21T15:02:39;6.43;;;2.58;;
12966;SDS011;6548;49.996;8.238;2024-02-21T15:05:05;6.45;;;2.00;;
12966;SDS011;6548;49.996;8.238;2024-02-21T15:07:31;6.20;;;2.35;;
12966;SDS011;6548;49.996;8.238;2024-02-21T15:09:57;7.00;;;2.15;;
12966;SDS011;6548;49.996;8.238;2024-02-21T15:12:23;13.15;;;3.15;;
12966;SDS011;6548;49.996;8.238;2024-02-21T15:14:49;6.28;;;3.00;;
12966;SDS011;6548;49.996;8.238;2024-02-21T15:17:15;6.13;;;1.95;;
12966;SDS011;6548;49.996;8.238;2024-02-21T15:19:40;5.70;;;2.78;;
12966;SDS011;6548;49.996;8.238;2024-02-21T15:22:09;6.55;;;2.28;;
12966;SDS011;6548;49.996;8.238;2024-02-21T15:24:36;5.85;;;2.30;;
12966;SDS011;6548;49.996;8.238;2024-02-21T15:27:02;5.15;;;2.00;;
12966;SDS011;6548;49.996;8.238;2024-02-21T15:29:28;4.68;;;1.83;;
12966;SDS011;6548;49.996;8.238;2024-02-21T15:31:53;3.78;;;1.92;;
12966;SDS011;6548;49.996;8.238;2024-02-21T15:34:19;7.55;;;2.00;;
12966;SDS011;6548;49.996;8.238;2024-02-21T15:36:45;3.97;;;2.00;;
12966;SDS011;6548;49.996;8.238;2024-02-21T15:39:10;6.22;;;2.28;;
12966;SDS011;6548;49.996;8.238;2024-02-21T15:41:36;7.80;;;2.85;;
12966;SDS011;6548;49.996;8.238;2024-02-21T15:44:02;4.15;;;2.10;;
12966;SDS011;6548;49.996;8.238;2024-02-21T15:46:29;8.85;;;2.10;;
12966;SDS011;6548;49.996;8.238;2024-02-21T15:48:56;2.53;;;1.90;;
12966;SDS011;6548;49.996;8.238;2024-02-21T15:51:22;7.57;;;1.98;;
12966;SDS011;6548;49.996;8.238;2024-02-21T15:53:48;6.22;;;2.15;;
12966;SDS011;6548;49.996;8.238;2024-02-21T15:56:14;9.05;;;2.83;;
12966;SDS011;6548;49.996;8.238;2024-02-21T15:58:40;5.50;;;2.70;;
12966;SDS011;6548;49.996;8.238;2024-02-21T16:01:05;6.85;;;3.33;;
12966;SDS011;6548;49.996;8.238;2024-02-21T16:03:31;5.25;;;2.85;;
12966;SDS011;6548;49.996;8.238;2024-02-21T16:05:57;6.25;;;2.15;;
12966;SDS011;6548;49.996;8.238;2024-02-21T16:08:23;5.65;;;2.70;;
12966;SDS011;6548;49.996;8.238;2024-02-21T16:10:49;9.02;;;3.35;;
12966;SDS011;6548;49.996;8.238;2024-02-21T16:13:15;8.05;;;2.95;;
12966;SDS011;6548;49.996;8.238;2024-02-21T16:15:41;7.07;;;2.80;;
12966;SDS011;6548;49.996;8.238;2024-02-21T16:18:07;11.98;;;3.22;;
12966;SDS011;6548;49.996;8.238;2024-02-21T16:20:33;7.53;;;3.17;;
12966;SDS011;6548;49.996;8.238;2024-02-21T16:22:58;6.35;;;3.20;;
12966;SDS011;6548;49.996;8.238;2024-02-21T16:25:28;7.00;;;3.45;;
12966;SDS011;6548;49.996;8.238;2024-02-21T16:27:54;7.90;;;3.97;;
12966;SDS011;6548;49.996;8.238;2024-02-21T16:30:19;10.63;;;4.10;;
12966;SDS011;6548;49.996;8.238;2024-02-21T16:32:48;5.07;;;3.15;;
12966;SDS011;6548;49.996;8.238;2024-02-21T16:35:13;10.93;;;3.70;;
12966;SDS011;6548;49.996;8.238;2024-02-21T16:37:39;6.93;;;2.75;;
12966;SDS011;6548;49.996;8.238;2024-02-21T16:40:05;9.13;;;3.55;;
12966;SDS011;6548;49.996;8.238;2024-02-21T16:42:31;8.93;;;2.85;;
12966;SDS011;6548;49.996;8.238;2024-02-21T16:44:57;13.88;;;3.10;;
12966;SDS011;6548;49.996;8.238;2024-02-21T16:47:22;6.18;;;3.13;;
12966;SDS011;6548;49.996;8.238;2024-02-21T16:49:50;8.20;;;3.08;;
12966;SDS011;6548;49.996;8.238;2024-02-21T16:52:15;6.78;;;2.97;;
12966;SDS011;6548;49.996;8.238;2024-02-21T16:54:41;6.32;;;3.20;;
12966;SDS011;6548;49.996;8.238;2024-02-21T16:57:06;12.25;;;3.78;;
12966;SDS011;6548;49.996;8.238;2024-02-21T16:59:32;13.40;;;3.38;;
12966;SDS011;6548;49.996;8.238;2024-02-21T17:01:58;7.05;;;4.75;;
12966;SDS011;6548;49.996;8.238;2024-02-21T17:04:26;5.78;;;2.70;;
12966;SDS011;6548;49.996;8.238;2024-02-21T17:06:53;7.35;;;3.42;;
12966;SDS011;6548;49.996;8.238;2024-02-21T17:09:19;7.00;;;2.83;;
12966;SDS011;6548;49.996;8.238;2024-02-21T17:11:44;10.20;;;3.90;;
12966;SDS011;6548;49.996;8.238;2024-02-21T17:14:10;5.53;;;3.25;;
12966;SDS011;6548;49.996;8.238;2024-02-21T17:16:36;5.40;;;2.58;;
12966;SDS011;6548;49.996;8.238;2024-02-21T17:19:02;5.40;;;3.00;;
12966;SDS011;6548;49.996;8.238;2024-02-21T17:21:30;7.97;;;3.13;;
12966;SDS011;6548;49.996;8.238;2024-02-21T17:23:56;11.57;;;3.33;;
12966;SDS011;6548;49.996;8.238;2024-02-21T17:26:22;5.53;;;3.00;;